Cape Sakura — 7JHZ — position and weather

sailwx.info

Track history (hours):
 
Tides and Currents Weather Stations Pressure Air Temp Water Temp Dewpoint Dewpoint Depression Visibility Wind Speed Wind Dir Waves Ship Positions

Cape Sakura

Last reported at 2017-Apr-09 23:26 UTC. Time now 2017-Apr-28 02:23 UTC.
Position N 36°49' W 075°44'.
Warning: this ship's position is 18 days out of date.

Length 292 m; draft 14.1 m.

Type: Cargo ship. MMSI: 432786000.

Date/timePositionNaut miles runAvg speedWind from/ knotsBaromVisibWave heightAir tempDewpointWater temp
2017-Apr-09 23:26N 36°49' W 075°44'4 8.4
2017-Apr-09 22:55N 36°51' W 075°49'3 8.0
2017-Apr-09 22:30N 36°52' W 075°52'4 7.8
2017-Apr-09 22:00N 36°55' W 075°56'4 7.5
2017-Apr-09 21:30N 36°58' W 075°59'4 7.9
2017-Apr-09 21:00N 37°01' W 076°02'4 7.8
2017-Apr-09 20:31N 37°04' W 076°05'4 8.8
2017-Apr-09 20:00N 37°08' W 076°08'4 8.0
2017-Apr-09 19:30N 37°11' W 076°09'4 7.4
2017-Apr-09 19:00N 37°15' W 076°08'3910.1
2017-Apr-09 15:08N 37°54' W 076°09'412.2
2017-Apr-09 14:48N 37°58' W 076°11'513.7
2017-Apr-09 14:28N 38°02' W 076°13'2314.6
2017-Apr-09 12:55N 38°24' W 076°21'615.0
2017-Apr-09 12:30N 38°30' W 076°24'713.6
2017-Apr-09 12:00N 38°37' W 076°26'713.9
2017-Apr-09 11:29N 38°44' W 076°26'714.2
2017-Apr-09 11:00N 38°50' W 076°24'612.6
2017-Apr-09 10:30N 38°57' W 076°23'5 9.4
2017-Apr-09 10:00N 39°01' W 076°23'4 8.1
2017-Apr-09 09:30N 39°05' W 076°24'4 7.8
2017-Apr-09 09:00N 39°09' W 076°25'4 8.0
2017-Apr-09 08:30N 39°11' W 076°29'4 7.9
2017-Apr-09 08:00N 39°14' W 076°33'2 3.0
2017-Apr-09 07:30N 39°15' W 076°34'0 0.4
2017-Apr-09 06:59N 39°15' W 076°34'0 0.0
2017-Apr-09 06:29N 39°15' W 076°34'0 0.0
2017-Apr-09 05:59N 39°15' W 076°34'0 0.0
2017-Apr-09 05:29N 39°15' W 076°34'0 0.0
2017-Apr-09 04:59N 39°15' W 076°34'0 0.0
2017-Apr-09 04:29N 39°15' W 076°34'0 0.0
2017-Apr-09 03:53N 39°15' W 076°34'0 0.0
2017-Apr-09 03:29N 39°15' W 076°34'0 0.0
2017-Apr-09 02:59N 39°15' W 076°34'0 0.0
2017-Apr-09 02:29N 39°15' W 076°34'0 0.0
2017-Apr-09 01:59N 39°15' W 076°34'0 0.0
2017-Apr-09 01:29N 39°15' W 076°34'0 0.0
2017-Apr-09 00:53N 39°15' W 076°34'0 0.0
2017-Apr-09 00:26N 39°15' W 076°34'0 0.0
2017-Apr-08 23:59N 39°15' W 076°34'0 0.0
2017-Apr-08 23:29N 39°15' W 076°34'0 0.0
2017-Apr-08 22:59N 39°15' W 076°34'0 0.0
2017-Apr-08 22:27N 39°15' W 076°34'0 0.0
2017-Apr-08 21:59N 39°15' W 076°34'0 0.0
2017-Apr-08 21:26N 39°15' W 076°34'0 0.0
2017-Apr-08 20:59N 39°15' W 076°34'0 0.0
2017-Apr-08 20:29N 39°15' W 076°34'0 0.0
2017-Apr-08 19:59N 39°15' W 076°34'0 0.0
2017-Apr-08 19:29N 39°15' W 076°34'0 0.0
2017-Apr-08 18:59N 39°15' W 076°34'0 0.0
2017-Apr-08 18:27N 39°15' W 076°34'0 0.0
2017-Apr-08 17:59N 39°15' W 076°34'0 0.0
2017-Apr-08 17:29N 39°15' W 076°34'0 0.0
2017-Apr-08 16:59N 39°15' W 076°34'0 0.0
2017-Apr-08 16:29N 39°15' W 076°34'0 0.0
2017-Apr-08 15:59N 39°15' W 076°34'0 0.0
2017-Apr-08 15:29N 39°15' W 076°34'0 0.0
2017-Apr-08 14:59N 39°15' W 076°34'0 0.0
2017-Apr-08 13:59N 39°15' W 076°34'0 0.0
2017-Apr-08 13:29N 39°15' W 076°34'0 0.0
2017-Apr-08 12:59N 39°15' W 076°34'0 0.0
2017-Apr-08 12:29N 39°15' W 076°34'0 0.0
2017-Apr-08 11:59N 39°15' W 076°34'0 0.0
2017-Apr-08 11:29N 39°15' W 076°34'0 0.0
2017-Apr-08 10:59N 39°15' W 076°34'0 0.0
2017-Apr-08 10:29N 39°15' W 076°34'0 0.0
2017-Apr-08 09:59N 39°15' W 076°34'0 0.0
2017-Apr-08 09:29N 39°15' W 076°34'0 0.0
2017-Apr-08 08:59N 39°15' W 076°34'0 0.0
2017-Apr-08 08:29N 39°15' W 076°34'0 0.0
2017-Apr-08 07:59N 39°15' W 076°34'0 0.0
2017-Apr-08 07:29N 39°15' W 076°34'0 0.0
2017-Apr-08 06:59N 39°15' W 076°34'0 0.0
2017-Apr-08 06:29N 39°15' W 076°34'0 0.0
2017-Apr-08 05:59N 39°15' W 076°34'0 0.0
2017-Apr-08 05:29N 39°15' W 076°34'0 0.0
2017-Apr-08 04:53N 39°15' W 076°34'0 0.0
2017-Apr-08 04:26N 39°15' W 076°34'0 0.0
2017-Apr-08 03:59N 39°15' W 076°34'0 0.0
2017-Apr-08 03:29N 39°15' W 076°34'0 0.0
2017-Apr-08 02:59N 39°15' W 076°34'0 0.0
2017-Apr-08 02:29N 39°15' W 076°34'0 0.0
2017-Apr-08 01:59N 39°15' W 076°34'0 0.0
2017-Apr-08 01:29N 39°15' W 076°34'0 0.0
2017-Apr-08 00:59N 39°15' W 076°34'0 0.0
2017-Apr-08 00:29N 39°15' W 076°34'0 0.0
2017-Apr-07 23:59N 39°15' W 076°34'0 0.0
2017-Apr-07 23:29N 39°15' W 076°34'0 0.0
2017-Apr-07 22:44N 39°15' W 076°34'0 0.0
2017-Apr-07 22:26N 39°15' W 076°34'0 0.0
2017-Apr-07 21:56N 39°15' W 076°34'0 0.0
2017-Apr-07 21:23N 39°15' W 076°34'0 0.0
2017-Apr-07 20:59N 39°15' W 076°34'0 0.0
2017-Apr-07 20:29N 39°15' W 076°34'0 0.0
2017-Apr-07 19:59N 39°15' W 076°34'0 0.0
2017-Apr-07 19:29N 39°15' W 076°34'0 0.0
2017-Apr-07 18:59N 39°15' W 076°34'0 0.0
2017-Apr-07 18:23N 39°15' W 076°34'0 0.0
2017-Apr-07 17:59N 39°15' W 076°34'0 0.0
2017-Apr-07 17:23N 39°15' W 076°34'0 0.0
2017-Apr-07 16:59N 39°15' W 076°34'0 0.0
2017-Apr-07 16:29N 39°15' W 076°34'0 0.0
2017-Apr-07 15:59N 39°15' W 076°34'0 0.0
2017-Apr-07 15:26N 39°15' W 076°34'0 0.0
2017-Apr-07 14:59N 39°15' W 076°34'0 0.0
2017-Apr-07 13:59N 39°15' W 076°34'0 0.0
2017-Apr-07 13:29N 39°15' W 076°34'0 0.0
2017-Apr-07 13:00N 39°15' W 076°34'1 1.5
2017-Apr-07 12:31N 39°15' W 076°34'2 4.4
2017-Apr-07 12:00N 39°13' W 076°32'4 7.8
2017-Apr-07 11:30N 39°11' W 076°27'5 9.9
2017-Apr-07 11:00N 39°07' W 076°24'612.1
2017-Apr-07 10:30N 39°01' W 076°22'611.5
2017-Apr-07 10:00N 38°55' W 076°24'1 1.6
2017-Apr-07 09:26N 38°55' W 076°24'0 0.1
2017-Apr-07 08:56N 38°55' W 076°24'0 0.0
2017-Apr-07 08:29N 38°55' W 076°24'0 0.1
2017-Apr-07 07:59N 38°55' W 076°24'0 0.1
2017-Apr-07 07:29N 38°55' W 076°24'0 0.1
2017-Apr-07 06:59N 38°55' W 076°24'0 0.1
2017-Apr-07 06:29N 38°55' W 076°24'0 0.0
2017-Apr-07 05:53N 38°55' W 076°24'0 0.1
2017-Apr-07 05:14N 38°55' W 076°24'0 0.1
2017-Apr-07 04:59N 38°55' W 076°24'0 0.1
2017-Apr-07 04:29N 38°55' W 076°24'0 0.0
2017-Apr-07 03:59N 38°55' W 076°24'0 0.0
2017-Apr-07 03:29N 38°55' W 076°24'0 0.1
2017-Apr-07 02:59N 38°55' W 076°24'0 0.1
2017-Apr-07 02:29N 38°55' W 076°24'0 0.1
2017-Apr-07 01:56N 38°55' W 076°24'0 0.0
2017-Apr-07 01:29N 38°55' W 076°24'0 0.1
2017-Apr-07 00:59N 38°55' W 076°24'0 0.2
2017-Apr-07 00:17N 38°55' W 076°24'0 0.3
2017-Apr-06 23:50N 38°55' W 076°25'0 0.3
2017-Apr-06 23:27N 38°55' W 076°25'0 0.2
2017-Apr-06 22:59N 38°55' W 076°24'0 0.1
2017-Apr-06 22:23N 38°55' W 076°24'0 0.1
2017-Apr-06 21:53N 38°55' W 076°24'0 0.0
2017-Apr-06 21:29N 38°55' W 076°24'0 0.0
2017-Apr-06 20:56N 38°55' W 076°24'0 0.1
2017-Apr-06 20:29N 38°55' W 076°24'0 0.0
2017-Apr-06 19:59N 38°55' W 076°24'0 0.0
2017-Apr-06 19:11N 38°55' W 076°24'0 0.1
2017-Apr-06 18:59N 38°55' W 076°24'0 0.1
2017-Apr-06 18:30N 38°55' W 076°24'0 0.1
2017-Apr-06 17:56N 38°55' W 076°24'0 0.1
2017-Apr-06 17:29N 38°55' W 076°24'0 0.1
2017-Apr-06 16:56N 38°55' W 076°24'0 0.0
2017-Apr-06 16:26N 38°55' W 076°24'0 0.3
2017-Apr-06 15:56N 38°55' W 076°24'0 0.1
2017-Apr-06 15:30N 38°55' W 076°24'2 3.4
2017-Apr-06 15:00N 38°53' W 076°24'611.9
2017-Apr-06 14:30N 38°47' W 076°25'3515.0
2017-Apr-06 12:10N 38°13' W 076°15'515.3
2017-Apr-06 11:49N 38°08' W 076°13'6214.4
2017-Apr-06 07:30N 37°06' W 076°07'815.4
2017-Apr-06 07:00N 36°60' W 076°01'511.1
2017-Apr-06 06:30N 36°56' W 075°56'5 9.6
2017-Apr-06 06:00N 36°53' W 075°52'24512.3
2017-Apr-05 10:04N 36°56' W 070°45'  
Track history (hours):
 
Tides and Currents Weather Stations Pressure Air Temp Water Temp Dewpoint Dewpoint Depression Visibility Wind Speed Wind Dir Waves Ship Positions

Cape Sakura

Last reported at 2017-Apr-09 23:26 UTC. Time now 2017-Apr-28 02:23 UTC.
Position N 36°49' W 075°44'.
Warning: this ship's position is 18 days out of date.

Length 292 m; draft 14.1 m.

Type: Cargo ship. MMSI: 432786000.

Date/timePositionNaut miles runAvg speedWind from/ knotsBaromVisibWave heightAir tempDewpointWater temp
2017-Apr-09 23:26N 36°49' W 075°44'4 8.4
2017-Apr-09 22:55N 36°51' W 075°49'3 8.0
2017-Apr-09 22:30N 36°52' W 075°52'4 7.8
2017-Apr-09 22:00N 36°55' W 075°56'4 7.5
2017-Apr-09 21:30N 36°58' W 075°59'4 7.9
2017-Apr-09 21:00N 37°01' W 076°02'4 7.8
2017-Apr-09 20:31N 37°04' W 076°05'4 8.8
2017-Apr-09 20:00N 37°08' W 076°08'4 8.0
2017-Apr-09 19:30N 37°11' W 076°09'4 7.4
2017-Apr-09 19:00N 37°15' W 076°08'3910.1
2017-Apr-09 15:08N 37°54' W 076°09'412.2
2017-Apr-09 14:48N 37°58' W 076°11'513.7
2017-Apr-09 14:28N 38°02' W 076°13'2314.6
2017-Apr-09 12:55N 38°24' W 076°21'615.0
2017-Apr-09 12:30N 38°30' W 076°24'713.6
2017-Apr-09 12:00N 38°37' W 076°26'713.9
2017-Apr-09 11:29N 38°44' W 076°26'714.2
2017-Apr-09 11:00N 38°50' W 076°24'612.6
2017-Apr-09 10:30N 38°57' W 076°23'5 9.4
2017-Apr-09 10:00N 39°01' W 076°23'4 8.1
2017-Apr-09 09:30N 39°05' W 076°24'4 7.8
2017-Apr-09 09:00N 39°09' W 076°25'4 8.0
2017-Apr-09 08:30N 39°11' W 076°29'4 7.9
2017-Apr-09 08:00N 39°14' W 076°33'2 3.0
2017-Apr-09 07:30N 39°15' W 076°34'0 0.4
2017-Apr-09 06:59N 39°15' W 076°34'0 0.0
2017-Apr-09 06:29N 39°15' W 076°34'0 0.0
2017-Apr-09 05:59N 39°15' W 076°34'0 0.0
2017-Apr-09 05:29N 39°15' W 076°34'0 0.0
2017-Apr-09 04:59N 39°15' W 076°34'0 0.0
2017-Apr-09 04:29N 39°15' W 076°34'0 0.0
2017-Apr-09 03:53N 39°15' W 076°34'0 0.0
2017-Apr-09 03:29N 39°15' W 076°34'0 0.0
2017-Apr-09 02:59N 39°15' W 076°34'0 0.0
2017-Apr-09 02:29N 39°15' W 076°34'0 0.0
2017-Apr-09 01:59N 39°15' W 076°34'0 0.0
2017-Apr-09 01:29N 39°15' W 076°34'0 0.0
2017-Apr-09 00:53N 39°15' W 076°34'0 0.0
2017-Apr-09 00:26N 39°15' W 076°34'0 0.0
2017-Apr-08 23:59N 39°15' W 076°34'0 0.0
2017-Apr-08 23:29N 39°15' W 076°34'0 0.0
2017-Apr-08 22:59N 39°15' W 076°34'0 0.0
2017-Apr-08 22:27N 39°15' W 076°34'0 0.0
2017-Apr-08 21:59N 39°15' W 076°34'0 0.0
2017-Apr-08 21:26N 39°15' W 076°34'0 0.0
2017-Apr-08 20:59N 39°15' W 076°34'0 0.0
2017-Apr-08 20:29N 39°15' W 076°34'0 0.0
2017-Apr-08 19:59N 39°15' W 076°34'0 0.0
2017-Apr-08 19:29N 39°15' W 076°34'0 0.0
2017-Apr-08 18:59N 39°15' W 076°34'0 0.0
2017-Apr-08 18:27N 39°15' W 076°34'0 0.0
2017-Apr-08 17:59N 39°15' W 076°34'0 0.0
2017-Apr-08 17:29N 39°15' W 076°34'0 0.0
2017-Apr-08 16:59N 39°15' W 076°34'0 0.0
2017-Apr-08 16:29N 39°15' W 076°34'0 0.0
2017-Apr-08 15:59N 39°15' W 076°34'0 0.0
2017-Apr-08 15:29N 39°15' W 076°34'0 0.0
2017-Apr-08 14:59N 39°15' W 076°34'0 0.0
2017-Apr-08 13:59N 39°15' W 076°34'0 0.0
2017-Apr-08 13:29N 39°15' W 076°34'0 0.0
2017-Apr-08 12:59N 39°15' W 076°34'0 0.0
2017-Apr-08 12:29N 39°15' W 076°34'0 0.0
2017-Apr-08 11:59N 39°15' W 076°34'0 0.0
2017-Apr-08 11:29N 39°15' W 076°34'0 0.0
2017-Apr-08 10:59N 39°15' W 076°34'0 0.0
2017-Apr-08 10:29N 39°15' W 076°34'0 0.0
2017-Apr-08 09:59N 39°15' W 076°34'0 0.0
2017-Apr-08 09:29N 39°15' W 076°34'0 0.0
2017-Apr-08 08:59N 39°15' W 076°34'0 0.0
2017-Apr-08 08:29N 39°15' W 076°34'0 0.0
2017-Apr-08 07:59N 39°15' W 076°34'0 0.0
2017-Apr-08 07:29N 39°15' W 076°34'0 0.0
2017-Apr-08 06:59N 39°15' W 076°34'0 0.0
2017-Apr-08 06:29N 39°15' W 076°34'0 0.0
2017-Apr-08 05:59N 39°15' W 076°34'0 0.0
2017-Apr-08 05:29N 39°15' W 076°34'0 0.0
2017-Apr-08 04:53N 39°15' W 076°34'0 0.0
2017-Apr-08 04:26N 39°15' W 076°34'0 0.0
2017-Apr-08 03:59N 39°15' W 076°34'0 0.0
2017-Apr-08 03:29N 39°15' W 076°34'0 0.0
2017-Apr-08 02:59N 39°15' W 076°34'0 0.0
2017-Apr-08 02:29N 39°15' W 076°34'0 0.0
2017-Apr-08 01:59N 39°15' W 076°34'0 0.0
2017-Apr-08 01:29N 39°15' W 076°34'0 0.0
2017-Apr-08 00:59N 39°15' W 076°34'0 0.0
2017-Apr-08 00:29N 39°15' W 076°34'0 0.0
2017-Apr-07 23:59N 39°15' W 076°34'0 0.0
2017-Apr-07 23:29N 39°15' W 076°34'0 0.0
2017-Apr-07 22:44N 39°15' W 076°34'0 0.0
2017-Apr-07 22:26N 39°15' W 076°34'0 0.0
2017-Apr-07 21:56N 39°15' W 076°34'0 0.0
2017-Apr-07 21:23N 39°15' W 076°34'0 0.0
2017-Apr-07 20:59N 39°15' W 076°34'0 0.0
2017-Apr-07 20:29N 39°15' W 076°34'0 0.0
2017-Apr-07 19:59N 39°15' W 076°34'0 0.0
2017-Apr-07 19:29N 39°15' W 076°34'0 0.0
2017-Apr-07 18:59N 39°15' W 076°34'0 0.0
2017-Apr-07 18:23N 39°15' W 076°34'0 0.0
2017-Apr-07 17:59N 39°15' W 076°34'0 0.0
2017-Apr-07 17:23N 39°15' W 076°34'0 0.0
2017-Apr-07 16:59N 39°15' W 076°34'0 0.0
2017-Apr-07 16:29N 39°15' W 076°34'0 0.0
2017-Apr-07 15:59N 39°15' W 076°34'0 0.0
2017-Apr-07 15:26N 39°15' W 076°34'0 0.0
2017-Apr-07 14:59N 39°15' W 076°34'0 0.0
2017-Apr-07 13:59N 39°15' W 076°34'0 0.0
2017-Apr-07 13:29N 39°15' W 076°34'0 0.0
2017-Apr-07 13:00N 39°15' W 076°34'1 1.5
2017-Apr-07 12:31N 39°15' W 076°34'2 4.4
2017-Apr-07 12:00N 39°13' W 076°32'4 7.8
2017-Apr-07 11:30N 39°11' W 076°27'5 9.9
2017-Apr-07 11:00N 39°07' W 076°24'612.1
2017-Apr-07 10:30N 39°01' W 076°22'611.5
2017-Apr-07 10:00N 38°55' W 076°24'1 1.6
2017-Apr-07 09:26N 38°55' W 076°24'0 0.1
2017-Apr-07 08:56N 38°55' W 076°24'0 0.0
2017-Apr-07 08:29N 38°55' W 076°24'0 0.1
2017-Apr-07 07:59N 38°55' W 076°24'0 0.1
2017-Apr-07 07:29N 38°55' W 076°24'0 0.1
2017-Apr-07 06:59N 38°55' W 076°24'0 0.1
2017-Apr-07 06:29N 38°55' W 076°24'0 0.0
2017-Apr-07 05:53N 38°55' W 076°24'0 0.1
2017-Apr-07 05:14N 38°55' W 076°24'0 0.1
2017-Apr-07 04:59N 38°55' W 076°24'0 0.1
2017-Apr-07 04:29N 38°55' W 076°24'0 0.0
2017-Apr-07 03:59N 38°55' W 076°24'0 0.0
2017-Apr-07 03:29N 38°55' W 076°24'0 0.1
2017-Apr-07 02:59N 38°55' W 076°24'0 0.1
2017-Apr-07 02:29N 38°55' W 076°24'0 0.1
2017-Apr-07 01:56N 38°55' W 076°24'0 0.0
2017-Apr-07 01:29N 38°55' W 076°24'0 0.1
2017-Apr-07 00:59N 38°55' W 076°24'0 0.2
2017-Apr-07 00:17N 38°55' W 076°24'0 0.3
2017-Apr-06 23:50N 38°55' W 076°25'0 0.3
2017-Apr-06 23:27N 38°55' W 076°25'0 0.2
2017-Apr-06 22:59N 38°55' W 076°24'0 0.1
2017-Apr-06 22:23N 38°55' W 076°24'0 0.1
2017-Apr-06 21:53N 38°55' W 076°24'0 0.0
2017-Apr-06 21:29N 38°55' W 076°24'0 0.0
2017-Apr-06 20:56N 38°55' W 076°24'0 0.1
2017-Apr-06 20:29N 38°55' W 076°24'0 0.0
2017-Apr-06 19:59N 38°55' W 076°24'0 0.0
2017-Apr-06 19:11N 38°55' W 076°24'0 0.1
2017-Apr-06 18:59N 38°55' W 076°24'0 0.1
2017-Apr-06 18:30N 38°55' W 076°24'0 0.1
2017-Apr-06 17:56N 38°55' W 076°24'0 0.1
2017-Apr-06 17:29N 38°55' W 076°24'0 0.1
2017-Apr-06 16:56N 38°55' W 076°24'0 0.0
2017-Apr-06 16:26N 38°55' W 076°24'0 0.3
2017-Apr-06 15:56N 38°55' W 076°24'0 0.1
2017-Apr-06 15:30N 38°55' W 076°24'2 3.4
2017-Apr-06 15:00N 38°53' W 076°24'611.9
2017-Apr-06 14:30N 38°47' W 076°25'3515.0
2017-Apr-06 12:10N 38°13' W 076°15'515.3
2017-Apr-06 11:49N 38°08' W 076°13'6214.4
2017-Apr-06 07:30N 37°06' W 076°07'815.4
2017-Apr-06 07:00N 36°60' W 076°01'511.1
2017-Apr-06 06:30N 36°56' W 075°56'5 9.6
2017-Apr-06 06:00N 36°53' W 075°52'24512.3
2017-Apr-05 10:04N 36°56' W 070°45'  

Dump ship's entire track history